Track Катюшкина Юлия

Time Latitude Longitude Accuracy (66% radius in meters) Altitude (meters) Speed (km/hour) Bearing (degrees) Battery (%) GPS flag
10:31:11 44.558995 38.197464 16 94.528938348273 0.011906355619431 351.6145324707 25 1 delete
10:30:59 44.558995 38.197464 12 94.143340477768 0 351.6145324707 25 1 delete
10:30:47 44.558995 38.197464 16 94.42898681951 0 351.6145324707 25 1 delete
10:30:35 44.558995 38.197464 16 94.233056568157 0 351.6145324707 25 1 delete
10:30:23 44.558995 38.197464 12 94.215802597114 0 351.6145324707 25 1 delete
10:30:14 44.558995 38.197464 8 94.482576208219 0 351.6145324707 25 1 delete
10:30:02 44.558995 38.197464 12 94.552379453141 0 351.6145324707 25 1 delete
10:29:50 44.558995 38.197464 8 94.308503901343 0 351.6145324707 25 1 delete
10:29:38 44.558995 38.197464 16 94.681000333931 0 351.6145324707 25 1 delete
10:29:26 44.558995 38.197464 12 94.776877056033 0 351.6145324707 25 1 delete
10:29:17 44.558995 38.197464 16 94.89813111965 0 351.6145324707 25 1 delete
10:29:05 44.558995 38.197464 16 95.246135549125 0 351.6145324707 25 1 delete
10:28:53 44.558995 38.197464 16 95.463741845012 0 351.6145324707 25 1 delete
10:28:41 44.558995 38.197464 12 95.915899486621 0 351.6145324707 25 1 delete
10:28:23 44.558995 38.197464 12 96.213299844372 0 351.6145324707 25 1 delete
10:28:11 44.558995 38.197464 16 96.598055885199 0 351.6145324707 25 1 delete
10:27:59 44.558995 38.197464 16 97.071687218767 0 351.6145324707 28 1 delete
10:27:47 44.558995 38.197464 12 97.589021471126 0.29707577824593 351.6145324707 28 1 delete
10:27:38 44.558995 38.197464 16 98.744464235126 0 351.6145324707 28 1 delete
10:27:23 44.558995 38.197464 24 99.014551421471 0 351.6145324707 28 1 delete
10:27:05 44.558985 38.197468 16 100.66095088307 0.0078472876921296 9.3421964645386 28 1 delete
10:26:56 44.558990 38.197472 16 103.04289985419 0.23770982027054 9.3421964645386 28 1 delete
10:26:41 44.558994 38.197474 8 104.33805713632 0 9.3421964645386 28 1 delete
10:26:32 44.558994 38.197474 16 104.94201403399 0.19139866530895 9.3421964645386 28 1 delete
10:26:20 44.558994 38.197474 16 105.46028886994 0 9.3421964645386 28 1 delete
10:25:56 44.558999 38.197478 8 107.15862219926 0.24135762453079 9.3421964645386 28 1 delete
10:25:44 44.559002 38.197483 16 108.66919777238 0 9.3421964645386 28 1 delete
10:25:32 44.559003 38.197485 12 110.50014688155 0.14173437654972 285.03112792969 28 1 delete
10:25:20 44.559020 38.197491 8 112.23368259063 0.52359068393707 10.653511047363 28 1 delete
10:25:08 44.558994 38.197512 12 114.29692553661 0 1.624156832695 28 1 delete
10:25:05 44.558959 38.197572 8 115.70899670114 2.6534132957458 327.02728271484 28 1 delete
10:25:02 44.558896 38.197679 8 116.96014985166 2.4357671737671 307.93334960938 28 1 delete
10:24:59 44.558858 38.197773 8 118.22633660991 2.1549925804138 291.16302490234 28 1 delete
10:24:56 44.558839 38.197860 8 119.30558391314 1.9167641401291 316.97918701172 28 1 delete
10:24:53 44.558827 38.197956 8 120.35083122761 1.6134215593338 344.83651733398 28 1 delete
10:24:50 44.558815 38.198034 12 121.3237168733 1.3989082574844 269.45306396484 28 1 delete
10:24:47 44.558804 38.198158 8 122.42624642848 1.2687947750092 236.29006958008 28 1 delete
10:24:44 44.558818 38.198221 8 123.7683329773 1.1524091959 258.13269042969 28 1 delete
10:24:41 44.558834 38.198279 8 125.06892186616 0.99637234210968 318.6572265625 28 1 delete
10:24:35 44.558844 38.198323 12 128.10092626013 1.1079837083817 247.67414855957 28 1 delete
10:24:32 44.558854 38.198363 8 129.34334392969 1.1705315113068 254.89300537109 28 1 delete
10:24:26 44.558914 38.198501 8 131.90565097865 0.89453846216202 255.09999084473 28 1 delete
10:24:23 44.558918 38.198540 8 133.28984748068 0.41145533323288 38.160034179688 28 1 delete
10:24:14 44.558949 38.198580 8 136.60717412125 1.06538438797 284.68313598633 28 1 delete
10:24:11 44.558951 38.198648 8 137.50597648859 0.98522090911865 220.44142150879 28 1 delete
10:24:08 44.558979 38.198706 8 138.54015876797 0.86448764801025 207.21319580078 28 1 delete
10:24:02 44.559017 38.198800 6 140.71778072673 0.83696103096008 232.70417785645 28 1 delete
10:23:59 44.559036 38.198876 8 141.8215023893 0.73223060369492 249.96533203125 28 1 delete
10:23:53 44.559066 38.198966 12 143.93871297 0.62810075283051 322.30926513672 28 1 delete
10:23:47 44.559031 38.199061 8 145.50945635502 1.4707789421082 312.13848876953 28 1 delete